Time;durP1;ratioP1;P1;durP2;ratioP2;P2;SDS_P1;SDS_P2;PMS_P1;PMS_P2;Temp;Humidity;BMP_temperature;BMP_pressure;BME280_temperature;BME280_humidity;BME280_pressure;Samples;Min_cycle;Max_cycle;Signal;HPM_P1;HPM_P2
2024/02/08 00:00:26;;;;;;;0.80;0.50;;;;;;;4.42;77.01;97290.18;108997;1259;58901;-25
2024/02/08 00:02:53;;;;;;;0.90;0.80;;;;;;;4.48;75.64;97289.35;109010;1259;73106;-26
2024/02/08 00:05:21;;;;;;;0.40;0.40;;;;;;;4.46;75.93;97298.80;109017;1259;74325;-26
2024/02/08 00:07:49;;;;;;;1.60;0.80;;;;;;;4.16;76.40;97278.44;109001;1261;72690;-26
2024/02/08 00:10:17;;;;;;;1.40;0.90;;;;;;;3.94;77.01;97287.09;108969;1260;58875;-25
2024/02/08 00:12:44;;;;;;;1.20;0.90;;;;;;;3.78;78.13;97301.10;108945;1259;58807;-26
2024/02/08 00:15:15;;;;;;;1.00;0.70;;;;;;;4.21;76.97;97301.00;109018;1259;71329;-26
2024/02/08 00:17:46;;;;;;;1.30;0.60;;;;;;;4.18;76.23;97301.25;108945;1258;74516;-26
2024/02/08 00:20:15;;;;;;;0.80;0.70;;;;;;;4.13;76.80;97310.73;108976;1259;70501;-26
2024/02/08 00:22:44;;;;;;;0.90;0.50;;;;;;;3.98;77.18;97314.89;108937;1259;58881;-26
2024/02/08 00:25:12;;;;;;;1.20;0.80;;;;;;;3.78;78.18;97324.47;108883;1258;58919;-26
2024/02/08 00:27:40;;;;;;;0.50;0.50;;;;;;;3.74;78.92;97329.18;108965;1260;71844;-26
2024/02/08 00:30:08;;;;;;;0.80;0.60;;;;;;;4.29;76.65;97324.79;108980;1259;74299;-26
2024/02/08 00:32:36;;;;;;;1.30;0.70;;;;;;;4.28;76.22;97323.45;108955;1261;72684;-26
2024/02/08 00:35:04;;;;;;;0.50;0.40;;;;;;;4.33;76.14;97324.62;108925;1260;60103;-26
2024/02/08 00:37:37;;;;;;;1.00;0.80;;;;;;;4.11;76.83;97330.21;109017;1260;60028;-25
2024/02/08 00:40:08;;;;;;;1.20;0.60;;;;;;;3.74;78.21;97330.73;108967;1261;73047;-26
2024/02/08 00:42:35;;;;;;;0.50;0.50;;;;;;;3.75;78.68;97328.61;108874;1260;73055;-25
2024/02/08 00:45:04;;;;;;;0.90;0.60;;;;;;;4.21;77.03;97345.34;108952;1259;72671;-26
2024/02/08 00:47:32;;;;;;;1.60;0.70;;;;;;;4.30;76.20;97339.63;108824;1261;59747;-26
2024/02/08 00:49:59;;;;;;;0.40;0.30;;;;;;;3.99;77.20;97342.45;109026;1259;60007;-26
2024/02/08 00:52:28;;;;;;;1.20;0.80;;;;;;;3.69;78.63;97348.83;109021;1258;70980;-26
2024/02/08 00:54:55;;;;;;;1.00;0.60;;;;;;;3.44;79.42;97348.61;108992;1260;74544;-26
2024/02/08 00:57:23;;;;;;;0.80;0.60;;;;;;;3.17;80.66;97336.05;108965;1260;71415;-25
2024/02/08 00:59:51;;;;;;;1.00;0.70;;;;;;;3.59;79.00;97340.32;108969;1260;58882;-26
2024/02/08 01:02:18;;;;;;;0.70;0.60;;;;;;;3.64;78.76;97337.72;108993;1261;60041;-26
2024/02/08 01:04:48;;;;;;;0.60;0.50;;;;;;;3.57;78.70;97336.58;109022;1259;73049;-26
2024/02/08 01:07:17;;;;;;;0.70;0.70;;;;;;;3.31;79.82;97344.98;108944;1261;74574;-26
2024/02/08 01:09:45;;;;;;;0.90;0.60;;;;;;;3.10;81.08;97342.84;108904;1260;72681;-26
2024/02/08 01:12:12;;;;;;;1.10;0.70;;;;;;;3.21;81.09;97346.05;108911;1259;58902;-26
2024/02/08 01:14:42;;;;;;;0.60;0.50;;;;;;;3.53;79.22;97346.67;109008;1260;58758;-25
2024/02/08 01:17:10;;;;;;;0.70;0.60;;;;;;;3.44;79.32;97348.27;108946;1259;73140;-25
2024/02/08 01:19:38;;;;;;;0.80;0.60;;;;;;;3.29;79.60;97350.09;109013;1260;73129;-26
2024/02/08 01:22:05;;;;;;;0.70;0.70;;;;;;;3.04;80.26;97339.19;108978;1260;72713;-26
2024/02/08 01:24:34;;;;;;;0.90;0.60;;;;;;;2.92;81.41;97351.57;108964;1260;59671;-25
2024/02/08 01:27:04;;;;;;;1.30;0.70;;;;;;;3.25;80.18;97357.91;108923;1261;58798;-26
2024/02/08 01:29:31;;;;;;;1.30;1.10;;;;;;;3.23;80.02;97362.02;108979;1259;73125;-26
2024/02/08 01:32:00;;;;;;;1.40;0.90;;;;;;;2.98;81.00;97362.92;108991;1260;74308;-25
2024/02/08 01:34:28;;;;;;;1.70;0.80;;;;;;;2.76;82.06;97375.42;108904;1259;70495;-25
2024/02/08 01:36:59;;;;;;;1.70;1.00;;;;;;;2.50;83.48;97368.80;108975;1259;60968;-25
2024/02/08 01:39:28;;;;;;;1.90;0.90;;;;;;;2.86;82.29;97376.71;109009;1260;58837;-26
2024/02/08 01:41:55;;;;;;;1.40;0.60;;;;;;;3.18;80.02;97386.06;108990;1259;73040;-25
2024/02/08 01:44:23;;;;;;;0.70;0.60;;;;;;;3.05;78.73;97382.45;108979;1260;73071;-25
2024/02/08 01:46:51;;;;;;;3.50;0.80;;;;;;;2.78;78.08;97387.88;108901;1260;72746;-25
2024/02/08 01:49:23;;;;;;;0.80;0.50;;;;;;;2.54;77.87;97392.80;108850;1259;58797;-25
2024/02/08 01:51:59;;;;;;;1.10;0.80;;;;;;;2.25;78.35;97394.39;108918;1259;59128;-25
2024/02/08 01:54:28;;;;;;;0.40;0.40;;;;;;;2.28;78.98;97397.13;108864;1259;73134;-25
2024/02/08 01:57:01;;;;;;;0.70;0.40;;;;;;;2.77;77.14;97398.59;108985;1260;74336;-25
2024/02/08 01:59:29;;;;;;;0.50;0.50;;;;;;;3.17;75.31;97401.45;108983;1260;72662;-26
2024/02/08 02:02:01;;;;;;;0.80;0.50;;;;;;;3.03;75.45;97404.25;108970;1260;59022;-25
2024/02/08 02:04:30;;;;;;;1.70;0.70;;;;;;;2.68;75.89;97407.67;108946;1260;60029;-26
2024/02/08 02:07:02;;;;;;;0.40;0.40;;;;;;;2.70;76.52;97410.63;108905;1260;71511;-25
2024/02/08 02:09:30;;;;;;;0.80;0.60;;;;;;;2.69;76.32;97411.58;108976;1260;74394;-25
2024/02/08 02:12:16;;;;;;;0.30;0.30;;;;;;;2.60;76.47;97410.85;108938;1260;72705;-25
2024/02/08 02:14:45;;;;;;;0.30;0.30;;;;;;;3.28;74.63;97420.16;108834;1260;59285;-26
2024/02/08 02:17:13;;;;;;;1.00;0.60;;;;;;;3.51;72.92;97412.02;108880;1260;60190;-25
2024/02/08 02:19:41;;;;;;;1.50;0.40;;;;;;;3.41;72.74;97421.05;108979;1259;71853;-25
2024/02/08 02:22:10;;;;;;;0.50;0.40;;;;;;;3.15;74.01;97417.87;108985;1260;74367;-25
2024/02/08 02:24:40;;;;;;;0.40;0.30;;;;;;;2.80;74.85;97419.14;108841;1260;73159;-25
2024/02/08 02:27:09;;;;;;;1.40;0.30;;;;;;;2.69;75.46;97420.81;108899;1259;58870;-25
2024/02/08 02:29:38;;;;;;;0.30;0.30;;;;;;;2.45;76.24;97414.73;108835;1259;58757;-25
2024/02/08 02:32:06;;;;;;;1.70;1.10;;;;;;;2.76;75.60;97410.55;108793;1260;73057;-25
2024/02/08 02:34:34;;;;;;;0.30;0.30;;;;;;;3.27;72.86;97415.80;108997;1260;74775;-25
2024/02/08 02:37:02;;;;;;;0.40;0.40;;;;;;;3.11;72.64;97414.52;108902;1260;71449;-25
2024/02/08 02:39:31;;;;;;;0.50;0.40;;;;;;;2.84;73.76;97425.50;108920;1259;58783;-25
2024/02/08 02:41:59;;;;;;;0.40;0.40;;;;;;;2.81;74.13;97431.39;109009;1260;58949;-26
2024/02/08 02:44:29;;;;;;;1.30;0.40;;;;;;;2.57;75.17;97433.33;108980;1260;73885;-25
2024/02/08 02:46:59;;;;;;;0.50;0.40;;;;;;;2.32;76.28;97435.38;108964;1260;73272;-26
2024/02/08 02:49:27;;;;;;;0.40;0.40;;;;;;;2.30;77.05;97439.27;108983;1259;71856;-26
2024/02/08 02:51:59;;;;;;;1.00;0.50;;;;;;;2.96;74.67;97448.75;108887;1259;60050;-26
2024/02/08 02:54:30;;;;;;;0.50;0.50;;;;;;;3.08;73.04;97443.80;108918;1261;60022;-26
2024/02/08 02:56:59;;;;;;;0.30;0.30;;;;;;;2.98;73.10;97450.86;108977;1259;73834;-26
2024/02/08 02:59:29;;;;;;;0.60;0.50;;;;;;;2.78;73.57;97453.76;108967;1260;74306;-26
2024/02/08 03:01:57;;;;;;;0.30;0.30;;;;;;;2.90;73.40;97454.94;108797;1259;70458;-26
2024/02/08 03:04:27;;;;;;;1.10;0.50;;;;;;;2.41;74.63;97454.61;108942;1260;58805;-25
2024/02/08 03:06:56;;;;;;;0.30;0.30;;;;;;;2.18;75.95;97451.61;108922;1259;59635;-26
2024/02/08 03:09:27;;;;;;;0.20;0.20;;;;;;;2.63;74.44;97449.41;108934;1259;72457;-26
2024/02/08 03:11:59;;;;;;;0.60;0.30;;;;;;;3.04;72.88;97451.45;108862;1259;73216;-26
2024/02/08 03:14:27;;;;;;;0.30;0.30;;;;;;;3.07;71.91;97453.28;108944;1260;71601;-26
2024/02/08 03:17:01;;;;;;;0.60;0.40;;;;;;;2.90;72.23;97449.44;108894;1259;59254;-26
2024/02/08 03:19:35;;;;;;;0.50;0.50;;;;;;;2.66;72.92;97452.92;108913;1262;60067;-26
2024/02/08 03:22:07;;;;;;;0.70;0.40;;;;;;;2.41;73.95;97450.61;108869;1259;73935;-26
2024/02/08 03:24:36;;;;;;;0.30;0.30;;;;;;;2.28;74.14;97457.73;108902;1260;73192;-26
2024/02/08 03:27:05;;;;;;;0.30;0.30;;;;;;;2.17;74.90;97462.63;108949;1259;72732;-26
2024/02/08 03:29:36;;;;;;;0.30;0.30;;;;;;;2.82;72.92;97470.55;108940;1259;59294;-26
2024/02/08 03:32:04;;;;;;;0.60;0.40;;;;;;;3.45;69.63;97469.76;108968;1258;58808;-26
2024/02/08 03:34:35;;;;;;;0.70;0.30;;;;;;;3.04;70.64;97477.50;108893;1259;73862;-26
2024/02/08 03:37:06;;;;;;;0.80;0.20;;;;;;;2.77;71.40;97483.64;108910;1260;74320;-26
2024/02/08 03:39:35;;;;;;;0.30;0.30;;;;;;;2.56;72.25;97485.34;108902;1259;72699;-26
2024/02/08 03:42:06;;;;;;;0.20;0.20;;;;;;;2.33;73.19;97488.88;108922;1259;58805;-26
2024/02/08 03:44:34;;;;;;;0.40;0.40;;;;;;;2.21;73.69;97488.36;108879;1259;58760;-26
2024/02/08 03:47:07;;;;;;;0.40;0.40;;;;;;;2.05;74.41;97490.02;108953;1259;72688;-26
2024/02/08 03:49:37;;;;;;;0.40;0.40;;;;;;;2.38;73.58;97491.98;108939;1259;74435;-26
2024/02/08 03:52:11;;;;;;;0.40;0.30;;;;;;;2.81;71.77;97493.92;108945;1259;72727;-26
2024/02/08 03:54:40;;;;;;;0.40;0.40;;;;;;;2.94;70.86;97498.30;108920;1259;58823;-27
2024/02/08 03:57:11;;;;;;;0.30;0.30;;;;;;;2.87;70.91;97498.88;108963;1259;60082;-26
2024/02/08 03:59:42;;;;;;;0.50;0.30;;;;;;;2.71;71.38;97498.48;108872;1259;73843;-26
2024/02/08 04:02:10;;;;;;;0.50;0.40;;;;;;;2.39;72.58;97495.69;108875;1259;74322;-26
2024/02/08 04:04:59;;;;;;;0.50;0.50;;;;;;;2.19;73.28;97499.16;108910;1259;71344;-26
2024/02/08 04:07:56;;;;;;;1.70;0.50;;;;;;;1.91;74.32;97498.73;108878;1259;59516;-26
2024/02/08 04:54:41;;;;;;;1.10;0.40;;;;;;;2.25;71.10;97571.80;109062;1256;73858;-26
2024/02/08 04:57:09;;;;;;;0.40;0.40;;;;;;;2.42;69.95;97569.74;109138;1256;72255;-26
2024/02/08 04:59:41;;;;;;;0.60;0.50;;;;;;;2.29;70.30;97571.58;109071;1257;71723;-26
2024/02/08 05:02:13;;;;;;;1.30;0.60;;;;;;;2.28;70.33;97573.85;108961;1256;59346;-25
2024/02/08 05:04:48;;;;;;;0.60;0.50;;;;;;;2.27;70.71;97578.56;109017;1256;60093;-26
2024/02/08 05:07:20;;;;;;;0.70;0.50;;;;;;;2.16;71.29;97579.34;109061;1256;72896;-26
2024/02/08 05:09:51;;;;;;;0.40;0.40;;;;;;;2.04;71.57;97579.27;109036;1256;74356;-26
2024/02/08 05:12:21;;;;;;;0.40;0.40;;;;;;;1.81;72.58;97582.73;109025;1256;73795;-26
2024/02/08 05:14:51;;;;;;;0.40;0.40;;;;;;;1.68;73.48;97580.73;109002;1256;60921;-26
2024/02/08 05:17:22;;;;;;;0.30;0.30;;;;;;;2.21;73.13;97586.80;109080;1256;60168;-26
2024/02/08 05:19:53;;;;;;;1.30;0.40;;;;;;;2.95;70.94;97589.95;108980;1256;74321;-26
2024/02/08 05:22:22;;;;;;;0.60;0.50;;;;;;;3.10;69.87;97593.35;109068;1256;75530;-26
2024/02/08 05:24:52;;;;;;;0.60;0.40;;;;;;;3.04;69.56;97593.98;109030;1256;71486;-26
2024/02/08 05:27:25;;;;;;;0.60;0.50;;;;;;;2.84;70.35;97591.13;108965;1256;58938;-26
2024/02/08 05:29:55;;;;;;;2.30;0.70;;;;;;;2.65;70.66;97599.34;109047;1256;59114;-25
2024/02/08 05:32:26;;;;;;;0.60;0.60;;;;;;;2.34;71.74;97602.01;109000;1256;73838;-26
2024/02/08 05:34:57;;;;;;;1.60;0.40;;;;;;;2.18;72.51;97606.70;109052;1256;72252;-25
2024/02/08 05:37:29;;;;;;;1.10;0.80;;;;;;;2.13;72.86;97613.24;109031;1256;71709;-26
2024/02/08 05:40:00;;;;;;;0.80;0.40;;;;;;;1.98;74.07;97615.51;109017;1257;58895;-26
2024/02/08 05:42:33;;;;;;;1.40;0.70;;;;;;;2.59;73.54;97613.64;108979;1256;60043;-26
2024/02/08 05:45:30;;;;;;;1.60;0.60;;;;;;;3.23;71.23;97616.20;109022;1256;72705;-27
2024/02/08 05:48:00;;;;;;;1.00;0.60;;;;;;;3.32;70.32;97614.31;109105;1256;72580;-26
2024/02/08 05:50:31;;;;;;;2.20;0.60;;;;;;;3.15;70.75;97615.08;109015;1256;71285;-26
2024/02/08 05:53:06;;;;;;;3.60;1.00;;;;;;;2.70;72.17;97620.20;109036;1257;58899;-26
2024/02/08 05:55:40;;;;;;;1.50;1.00;;;;;;;2.28;74.30;97623.86;109107;1256;60001;-26
2024/02/08 05:58:16;;;;;;;2.10;0.80;;;;;;;2.16;75.04;97629.11;108985;1256;73797;-26
2024/02/08 06:08:24;;;;;;;1.40;1.00;;;;;;;2.81;73.07;97654.23;102746;1295;601071;-30
2024/02/08 06:10:55;;;;;;;2.90;1.50;;;;;;;2.47;73.28;97656.59;104897;1269;61172;-28
2024/02/08 06:13:26;;;;;;;3.50;1.60;;;;;;;2.24;74.07;97665.20;104818;1273;61128;-28
2024/02/08 06:23:35;;;;;;;3.20;1.80;;;;;;;2.25;74.90;97678.70;102765;1292;599854;-29
2024/02/08 06:28:46;;;;;;;2.00;1.20;;;;;;;1.91;72.47;97674.80;104882;1268;61181;-29
2024/02/08 06:31:18;;;;;;;1.30;1.10;;;;;;;1.90;72.60;97685.15;104862;1266;74950;-30
2024/02/08 06:36:40;;;;;;;3.70;1.40;;;;;;;1.51;74.43;97691.02;104866;1263;228082;-28
2024/02/08 06:39:21;;;;;;;2.90;1.60;;;;;;;1.34;73.81;97691.95;104899;1267;61239;-27
2024/02/08 07:38:53;;;;;;;2.20;1.20;;;;;;;1.74;74.15;97762.72;105097;1264;61135;-27
2024/02/08 07:49:04;;;;;;;3.70;1.50;;;;;;;2.35;71.06;97765.88;102773;1292;600149;-32
2024/02/08 07:51:34;;;;;;;1.70;1.20;;;;;;;2.15;71.25;97765.30;104893;1266;61177;-29
2024/02/08 08:01:19;;;;;;;1.80;1.40;;;;;;;1.68;72.26;97763.98;102638;1292;601768;-28
2024/02/08 08:03:50;;;;;;;1.70;1.30;;;;;;;1.59;73.67;97766.78;104729;1274;61263;-28
2024/02/08 08:06:18;;;;;;;3.10;1.10;;;;;;;1.87;73.07;97774.86;104759;1272;61220;-28
2024/02/08 08:08:57;;;;;;;5.00;1.10;;;;;;;2.35;69.66;97765.20;104785;1271;72241;-30
2024/02/08 08:11:25;;;;;;;1.40;0.40;;;;;;;2.48;69.52;97769.79;104771;1268;73018;-29
2024/02/08 08:26:43;;;;;;;2.00;1.40;;;;;;;1.91;72.34;97785.05;102765;1292;598645;-33
2024/02/08 08:29:17;;;;;;;1.30;0.90;;;;;;;2.00;70.54;97790.60;105202;1263;62056;-28
2024/02/08 08:31:54;;;;;;;1.70;1.30;;;;;;;2.44;68.65;97786.52;104837;1268;61215;-28
2024/02/08 08:37:03;;;;;;;1.70;1.20;;;;;;;2.66;67.47;97791.86;104813;1263;75807;-27
2024/02/08 08:47:07;;;;;;;3.60;1.50;;;;;;;2.27;69.21;97807.37;102780;1294;600336;-28
2024/02/08 08:49:39;;;;;;;3.20;1.20;;;;;;;2.16;68.23;97809.77;104901;1270;61235;-32
2024/02/08 08:52:08;;;;;;;3.50;1.30;;;;;;;2.08;68.31;97816.65;104871;1270;61284;-28
2024/02/08 08:54:42;;;;;;;2.00;1.50;;;;;;;1.61;69.84;97819.69;104906;1266;73227;-31
2024/02/08 08:57:12;;;;;;;2.10;1.20;;;;;;;1.62;71.12;97825.77;104917;1270;75770;-31
2024/02/08 08:59:43;;;;;;;3.20;1.70;;;;;;;2.08;69.36;97827.91;104961;1266;218921;-29
2024/02/08 09:02:11;;;;;;;2.10;1.30;;;;;;;2.96;67.72;97834.85;105098;1263;61265;-29
2024/02/08 09:04:40;;;;;;;5.10;1.80;;;;;;;3.09;67.55;97836.89;105187;1265;62800;-27
2024/02/08 09:07:10;;;;;;;2.30;1.20;;;;;;;2.90;67.06;97835.48;104887;1270;74686;-29
2024/02/08 09:09:57;;;;;;;4.10;1.40;;;;;;;2.77;66.48;97835.30;104912;1266;77048;-29
2024/02/08 09:12:28;;;;;;;2.80;1.40;;;;;;;2.47;67.71;97844.52;105036;1263;74441;-31
2024/02/08 09:14:59;;;;;;;3.40;2.00;;;;;;;2.48;68.74;97842.77;104833;1263;61822;-28
2024/02/08 09:17:43;;;;;;;3.00;1.90;;;;;;;2.34;68.15;97846.59;104820;1264;62672;-28
2024/02/08 09:20:19;;;;;;;1.70;1.50;;;;;;;2.34;68.06;97849.53;104813;1263;75778;-28
2024/02/08 09:22:49;;;;;;;4.50;2.10;;;;;;;2.11;69.04;97848.15;105042;1263;77160;-28
2024/02/08 09:25:17;;;;;;;3.30;2.10;;;;;;;2.18;68.48;97845.77;104636;1264;74440;-28
2024/02/08 09:28:23;;;;;;;2.40;1.60;;;;;;;2.09;67.76;97848.42;104804;1268;63576;-28
2024/02/08 09:30:53;;;;;;;2.70;1.90;;;;;;;2.55;67.28;97847.08;104790;1268;61550;-28
2024/02/08 09:33:30;;;;;;;3.70;2.20;;;;;;;2.79;66.79;97848.08;104775;1263;75061;-32
2024/02/08 09:35:59;;;;;;;1.80;1.40;;;;;;;2.76;66.84;97851.71;104995;1263;77317;-32
2024/02/08 09:38:28;;;;;;;2.70;1.70;;;;;;;2.80;66.23;97853.29;104785;1263;71540;-29
2024/02/08 09:40:59;;;;;;;6.70;2.30;;;;;;;2.85;67.39;97855.05;104720;1271;61183;-30
2024/02/08 09:43:30;;;;;;;3.60;1.90;;;;;;;2.89;67.21;97858.68;104898;1270;61107;-29
2024/02/08 09:46:16;;;;;;;2.10;1.60;;;;;;;2.93;67.00;97853.46;104997;1263;75530;-30
2024/02/08 09:48:51;;;;;;;3.50;2.30;;;;;;;2.93;65.56;97854.45;105148;1267;76048;-29
2024/02/08 09:51:26;;;;;;;3.10;2.10;;;;;;;2.78;64.47;97857.92;105214;1259;73169;-32
2024/02/08 09:54:00;;;;;;;3.40;2.40;;;;;;;2.95;64.93;97854.48;105169;1260;61195;-35
2024/02/08 09:56:39;;;;;;;2.50;1.50;;;;;;;2.93;65.58;97849.52;105221;1260;61266;-31
2024/02/08 09:59:07;;;;;;;3.20;2.00;;;;;;;2.92;64.98;97858.44;105195;1260;75717;-28
2024/02/08 10:01:44;;;;;;;12.30;1.60;;;;;;;2.75;64.08;97854.17;105135;1260;77156;-29
2024/02/08 10:04:16;;;;;;;6.90;2.60;;;;;;;2.68;65.20;97858.56;105222;1265;75369;-31
2024/02/08 10:06:56;;;;;;;3.20;2.70;;;;;;;2.67;66.26;97856.05;105241;1260;62194;-29
2024/02/08 10:09:46;;;;;;;3.40;1.90;;;;;;;2.57;66.11;97857.77;105255;1266;61191;-27
2024/02/08 10:12:29;;;;;;;6.20;1.80;;;;;;;2.83;63.23;97859.05;105276;1260;73078;-28
2024/02/08 10:14:59;;;;;;;1.80;1.30;;;;;;;3.27;61.35;97864.84;105143;1260;77178;-27
2024/02/08 10:17:40;;;;;;;3.10;2.00;;;;;;;2.98;60.90;97853.10;105013;1260;72821;-27
2024/02/08 10:28:47;;;;;;;2.40;1.30;;;;;;;2.66;61.53;97853.04;105059;1266;75649;-26
2024/02/08 10:31:28;;;;;;;2.60;1.40;;;;;;;2.63;59.96;97854.13;105250;1261;75202;-26
2024/02/08 10:34:09;;;;;;;5.80;1.80;;;;;;;2.48;60.95;97860.24;105184;1267;61020;-26
2024/02/08 10:36:44;;;;;;;1.80;1.60;;;;;;;2.68;61.75;97857.71;105262;1265;62901;-26
2024/02/08 10:39:26;;;;;;;2.40;1.20;;;;;;;2.98;60.92;97856.31;105273;1264;75882;-26
2024/02/08 10:41:57;;;;;;;2.60;1.60;;;;;;;3.22;60.74;97854.52;105255;1260;77102;-26
2024/02/08 10:44:29;;;;;;;2.50;1.80;;;;;;;2.93;60.24;97849.13;105261;1261;75406;-27
2024/02/08 10:47:06;;;;;;;5.20;1.80;;;;;;;2.94;60.05;97851.15;105065;1267;62313;-27
2024/02/08 10:49:42;;;;;;;2.00;1.30;;;;;;;3.04;58.81;97846.55;105236;1260;62626;-27
2024/02/08 10:52:12;;;;;;;4.60;2.00;;;;;;;3.02;59.80;97849.43;105518;1256;74751;-27
2024/02/08 10:54:43;;;;;;;2.70;1.40;;;;;;;2.76;60.12;97840.70;105329;1264;75251;-27
2024/02/08 11:00:13;;;;;;;2.20;1.50;;;;;;;2.69;60.21;97850.40;105484;1262;61713;-27
2024/02/08 11:03:00;;;;;;;3.60;1.90;;;;;;;2.54;61.00;97846.48;105514;1262;62812;-27
2024/02/08 11:07:58;;;;;;;2.30;1.50;;;;;;;2.67;61.15;97851.94;105527;1257;77104;-28
2024/02/08 11:10:31;;;;;;;3.50;1.40;;;;;;;2.68;59.44;97840.25;105330;1264;75406;-28
2024/02/08 11:13:10;;;;;;;2.30;1.70;;;;;;;2.52;59.15;97845.91;105191;1256;61154;-27
2024/02/08 11:15:48;;;;;;;1.00;0.80;;;;;;;2.50;59.72;97846.39;105456;1261;62796;-27
2024/02/08 11:18:36;;;;;;;2.40;1.70;;;;;;;2.66;61.12;97846.05;105523;1256;74803;-27
2024/02/08 11:21:05;;;;;;;5.20;1.70;;;;;;;2.50;60.58;97846.20;105584;1257;77045;-27
2024/02/08 11:23:45;;;;;;;2.40;1.50;;;;;;;2.79;60.22;97841.19;105254;1257;74250;-27
2024/02/08 11:26:18;;;;;;;1.80;1.10;;;;;;;2.93;59.76;97844.21;105529;1262;61247;-27
2024/02/08 11:28:50;;;;;;;12.80;2.10;;;;;;;2.99;59.54;97848.74;105634;1257;62914;-29
2024/02/08 11:31:18;;;;;;;1.40;1.00;;;;;;;2.95;57.76;97838.86;105513;1262;75884;-27
2024/02/08 11:33:49;;;;;;;3.00;1.40;;;;;;;2.85;58.18;97843.05;105612;1256;77165;-27
2024/02/08 11:36:22;;;;;;;3.40;1.50;;;;;;;2.81;59.16;97841.73;105633;1256;75197;-27
2024/02/08 11:38:57;;;;;;;2.50;1.60;;;;;;;2.81;59.98;97847.20;105545;1261;62048;-27
2024/02/08 11:41:31;;;;;;;1.80;1.30;;;;;;;2.66;59.17;97845.21;105641;1257;62329;-27
2024/02/08 11:44:05;;;;;;;;;;;;;;;2.78;59.73;97854.98;105585;1260;75537;-27
2024/02/08 11:46:37;;;;;;;;;;;;;;;2.76;59.18;97856.83;105554;1257;75939;-27
2024/02/08 11:49:52;;;;;;;3.60;1.40;;;;;;;2.82;60.12;97854.19;105505;1257;75455;-27
2024/02/08 11:52:07;;;;;;;2.70;1.60;;;;;;;2.95;59.05;97854.16;105489;1256;61164;-27
2024/02/08 11:54:37;;;;;;;1.30;1.00;;;;;;;2.80;58.22;97845.23;105590;1261;62824;-27
2024/02/08 11:57:08;;;;;;;1.70;1.10;;;;;;;2.69;58.75;97848.70;105420;1259;75804;-27
2024/02/08 11:59:44;;;;;;;3.50;1.60;;;;;;;2.77;59.22;97844.95;105077;1264;77159;-27
2024/02/08 12:02:16;;;;;;;2.30;1.30;;;;;;;2.81;58.04;97842.27;105269;1256;74496;-27
2024/02/08 12:04:48;;;;;;;2.30;1.70;;;;;;;2.82;59.21;97841.19;105215;1256;61146;-27
2024/02/08 12:07:20;;;;;;;0.80;0.70;;;;;;;3.03;58.13;97839.04;105188;1262;61473;-27
2024/02/08 12:10:09;;;;;;;2.60;1.60;;;;;;;3.30;59.24;97836.64;105262;1263;74618;-27
2024/02/08 12:12:40;;;;;;;0.70;0.70;;;;;;;3.26;57.77;97838.44;105119;1257;77192;-28
2024/02/08 12:15:09;;;;;;;1.90;1.30;;;;;;;3.28;56.04;97839.36;105304;1264;73296;-27
2024/02/08 12:17:48;;;;;;;;;;;;;;;3.17;56.25;97840.64;105526;1256;61136;-27
2024/02/08 12:22:04;;;;;;;1.70;1.20;;;;;;;3.10;58.01;97841.77;103118;1290;600234;-26
2024/02/08 12:24:34;;;;;;;3.20;1.80;;;;;;;3.24;56.62;97844.59;105149;1264;62002;-27
2024/02/08 12:27:14;;;;;;;2.00;1.20;;;;;;;3.02;57.54;97837.38;105162;1264;62738;-27
2024/02/08 12:29:45;;;;;;;1.40;1.20;;;;;;;2.94;57.30;97831.78;104824;1264;72021;-27
2024/02/08 12:32:16;;;;;;;1.30;1.00;;;;;;;3.05;56.41;97834.79;105321;1258;76993;-27
2024/02/08 12:34:47;;;;;;;5.80;1.20;;;;;;;3.07;56.92;97834.84;105399;1261;217443;-27
2024/02/08 12:37:17;;;;;;;1.20;1.10;;;;;;;3.06;56.04;97832.48;105688;1254;61132;-27
2024/02/08 12:39:45;;;;;;;2.70;1.30;;;;;;;2.82;56.06;97828.33;105581;1259;61952;-27
2024/02/08 12:42:14;;;;;;;2.70;1.30;;;;;;;2.80;55.82;97833.40;105656;1254;75028;-27
2024/02/08 12:44:48;;;;;;;1.90;1.10;;;;;;;2.74;57.29;97832.65;105549;1263;77123;-27
2024/02/08 12:47:19;;;;;;;1.30;1.20;;;;;;;2.65;57.31;97834.06;105643;1257;75373;-27
2024/02/08 12:49:48;;;;;;;3.20;1.50;;;;;;;2.69;57.57;97828.02;105538;1255;61247;-27
2024/02/08 12:52:16;;;;;;;2.00;1.70;;;;;;;2.48;56.40;97824.60;105702;1254;62106;-27
2024/02/08 12:55:03;;;;;;;2.90;1.10;;;;;;;2.36;57.67;97826.95;105670;1254;75767;-27
2024/02/08 12:57:31;;;;;;;1.90;1.20;;;;;;;2.45;57.39;97835.09;105677;1260;76027;-27
2024/02/08 13:00:09;;;;;;;2.60;1.50;;;;;;;2.50;57.87;97832.02;105616;1257;74187;-27
2024/02/08 13:02:38;;;;;;;2.00;1.10;;;;;;;2.47;57.57;97831.16;105539;1258;61170;-28
2024/02/08 13:05:07;;;;;;;3.30;1.60;;;;;;;2.56;57.45;97825.60;105634;1260;61875;-27
2024/02/08 13:07:36;;;;;;;2.30;1.50;;;;;;;2.56;56.99;97824.77;105329;1257;75954;-29
2024/02/08 13:10:14;;;;;;;3.30;1.60;;;;;;;2.50;57.66;97821.89;105421;1258;77253;-28
2024/02/08 13:12:44;;;;;;;1.50;1.10;;;;;;;2.39;57.47;97818.52;105520;1261;74489;-25
2024/02/08 13:15:20;;;;;;;3.70;1.50;;;;;;;2.38;57.75;97823.58;105621;1256;61150;-25
2024/02/08 13:17:56;;;;;;;2.50;1.30;;;;;;;2.42;56.69;97826.02;105377;1260;62440;-25
2024/02/08 13:20:25;;;;;;;3.20;1.50;;;;;;;2.39;57.33;97821.44;105576;1261;74694;-25
2024/02/08 13:22:55;;;;;;;2.70;1.50;;;;;;;2.40;57.22;97818.31;105526;1262;75502;-26
2024/02/08 13:25:27;;;;;;;3.10;1.30;;;;;;;2.40;57.09;97812.31;105676;1259;75232;-26
2024/02/08 13:27:59;;;;;;;;;;;;;;;2.47;57.41;97808.91;105557;1258;62033;-26
2024/02/08 13:30:30;;;;;;;1.00;0.90;;;;;;;2.45;57.22;97803.55;105543;1257;61602;-26
2024/02/08 13:32:58;;;;;;;4.00;1.60;;;;;;;2.33;57.60;97811.73;105298;1260;75792;-26
2024/02/08 13:35:28;;;;;;;1.60;1.20;;;;;;;2.28;58.38;97816.31;105257;1257;76226;-26
2024/02/08 13:37:57;;;;;;;2.60;1.70;;;;;;;2.26;58.20;97808.07;105281;1259;74333;-28
2024/02/08 13:40:26;;;;;;;1.90;1.50;;;;;;;2.22;57.69;97806.83;105547;1259;61133;-26
2024/02/08 13:42:56;;;;;;;2.30;1.50;;;;;;;2.28;57.66;97810.02;105256;1257;62878;-26
2024/02/08 13:45:27;;;;;;;1.60;1.20;;;;;;;2.27;58.00;97810.45;105391;1257;74886;-26
2024/02/08 13:48:00;;;;;;;2.60;1.50;;;;;;;2.25;57.92;97809.35;105551;1257;75752;-26
2024/02/08 13:50:29;;;;;;;4.00;1.70;;;;;;;2.22;58.27;97812.27;105581;1258;75470;-27
2024/02/08 13:53:01;;;;;;;1.90;1.30;;;;;;;2.26;58.52;97809.80;105599;1257;61163;-26
2024/02/08 13:55:31;;;;;;;2.90;1.60;;;;;;;2.30;58.94;97807.48;105606;1257;61051;-26
2024/02/08 13:58:06;;;;;;;3.00;1.60;;;;;;;2.28;59.12;97806.07;105559;1261;75875;-26
2024/02/08 14:00:35;;;;;;;2.10;1.30;;;;;;;2.24;59.78;97802.39;105183;1263;76104;-26
2024/02/08 14:03:07;;;;;;;2.60;1.40;;;;;;;2.27;59.38;97801.36;105450;1257;75385;-27
2024/02/08 14:05:39;;;;;;;1.70;1.30;;;;;;;2.28;58.87;97792.92;105249;1257;62210;-26
2024/02/08 14:08:16;;;;;;;3.50;1.60;;;;;;;2.31;59.26;97787.02;105647;1257;61745;-26
2024/02/08 14:10:46;;;;;;;3.70;1.50;;;;;;;2.32;59.14;97785.11;105547;1257;75949;-26
2024/02/08 14:13:16;;;;;;;2.30;1.20;;;;;;;2.31;58.43;97787.92;105497;1258;77082;-26
2024/02/08 14:15:48;;;;;;;2.80;1.30;;;;;;;2.32;58.79;97797.23;105270;1257;75363;-26
2024/02/08 14:18:23;;;;;;;2.00;1.30;;;;;;;2.32;59.16;97796.94;105464;1257;61897;-26
2024/02/08 14:21:00;;;;;;;3.40;1.30;;;;;;;2.31;59.20;97802.12;105170;1257;61816;-26
2024/02/08 14:23:40;;;;;;;2.90;1.50;;;;;;;2.28;59.86;97810.54;105441;1263;75693;-26
2024/02/08 14:26:19;;;;;;;1.40;1.10;;;;;;;2.27;59.56;97820.55;105566;1257;75802;-26
2024/02/08 14:28:47;;;;;;;3.00;1.10;;;;;;;2.27;60.11;97829.24;105535;1262;75421;-26
2024/02/08 14:31:15;;;;;;;2.40;1.60;;;;;;;2.21;60.60;97837.02;105589;1257;62033;-26
2024/02/08 14:33:47;;;;;;;4.60;1.60;;;;;;;2.15;62.38;97837.77;105487;1257;61166;-26
2024/02/08 14:36:18;;;;;;;4.00;3.10;;;;;;;2.07;63.63;97843.55;105380;1260;74654;-26
2024/02/08 14:38:48;;;;;;;13.50;6.80;;;;;;;2.07;63.34;97848.05;105517;1257;74651;-32
2024/02/08 14:41:25;;;;;;;11.10;6.20;;;;;;;2.78;62.13;97835.58;105595;1257;75437;-30
2024/02/08 14:44:05;;;;;;;15.20;8.80;;;;;;;3.75;59.88;97834.98;105319;1257;62875;-28
2024/02/08 14:46:35;;;;;;;19.10;11.50;;;;;;;4.05;58.34;97842.08;105279;1260;62819;-30
2024/02/08 14:49:16;;;;;;;12.90;8.20;;;;;;;3.88;56.62;97847.44;105549;1256;75786;-28
2024/02/08 14:51:47;;;;;;;15.00;9.70;;;;;;;3.61;56.68;97849.22;105222;1264;76270;-29